Time;durP1;ratioP1;P1;durP2;ratioP2;P2;SDS_P1;SDS_P2;PMS_P1;PMS_P2;Temp;Humidity;BMP_temperature;BMP_pressure;BME280_temperature;BME280_humidity;BME280_pressure;Samples;Min_cycle;Max_cycle;Signal;HPM_P1;HPM_P2
2021/11/05 00:00:00;;;;;;;73.20;26.05;;;6.70;99.60;;;;;;4945861;28;20047;-76
2021/11/05 00:02:29;;;;;;;69.60;26.27;;;6.70;99.60;;;;;;4961485;28;20054;-76
2021/11/05 00:04:55;;;;;;;73.93;26.13;;;6.70;99.60;;;;;;4958942;28;20039;-76
2021/11/05 00:07:20;;;;;;;72.15;26.73;;;6.70;99.60;;;;;;4945559;28;20023;-77
2021/11/05 00:09:46;;;;;;;71.35;24.67;;;6.70;99.70;;;;;;4944733;28;20129;-76
2021/11/05 00:12:11;;;;;;;67.85;26.95;;;6.70;99.70;;;;;;4943715;28;20046;-76
2021/11/05 00:14:38;;;;;;;76.95;27.00;;;6.70;99.70;;;;;;4949467;28;20145;-76
2021/11/05 00:17:04;;;;;;;75.45;27.10;;;6.70;99.70;;;;;;4953966;28;20030;-76
2021/11/05 00:19:30;;;;;;;66.70;25.23;;;6.70;99.70;;;;;;4944973;28;20480;-78
2021/11/05 00:21:55;;;;;;;72.97;26.77;;;6.70;99.70;;;;;;4964765;28;20526;-75
2021/11/05 00:24:21;;;;;;;81.28;28.48;;;6.70;99.70;;;;;;4945200;28;20379;-75
2021/11/05 00:26:46;;;;;;;74.95;25.30;;;6.70;99.80;;;;;;4964667;28;20444;-76
2021/11/05 00:29:12;;;;;;;68.13;24.85;;;6.70;99.70;;;;;;4964068;28;20093;-76
2021/11/05 00:31:37;;;;;;;70.95;25.75;;;6.70;99.70;;;;;;4962076;28;20035;-76
2021/11/05 00:34:03;;;;;;;80.32;28.35;;;6.70;99.70;;;;;;4969124;28;20037;-76
2021/11/05 00:36:28;;;;;;;68.28;26.48;;;6.70;99.70;;;;;;4974390;28;20083;-76
2021/11/05 00:38:54;;;;;;;75.47;26.23;;;6.70;99.70;;;;;;4965549;28;20038;-76
2021/11/05 00:41:19;;;;;;;73.55;26.40;;;6.70;99.70;;;;;;4950517;28;20035;-76
2021/11/05 00:43:45;;;;;;;76.82;25.38;;;6.70;99.70;;;;;;4962463;28;20035;-75
2021/11/05 00:46:11;;;;;;;68.63;24.63;;;6.70;99.70;;;;;;4967059;28;20144;-74
2021/11/05 00:48:38;;;;;;;75.00;25.73;;;6.70;99.70;;;;;;4962069;28;20062;-75
2021/11/05 00:51:03;;;;;;;66.25;24.75;;;6.80;99.70;;;;;;4949720;28;20046;-75
2021/11/05 00:53:29;;;;;;;69.68;25.00;;;6.70;99.70;;;;;;4956829;28;20404;-75
2021/11/05 00:55:54;;;;;;;65.68;24.08;;;6.70;99.70;;;;;;4960870;28;20039;-75
2021/11/05 00:58:20;;;;;;;67.75;24.13;;;6.70;99.70;;;;;;4953401;28;20419;-75
2021/11/05 01:00:46;;;;;;;66.00;23.90;;;6.70;99.70;;;;;;4964957;28;20094;-74
2021/11/05 01:03:12;;;;;;;65.93;25.88;;;6.80;99.70;;;;;;4947899;28;20231;-75
2021/11/05 01:05:38;;;;;;;62.63;23.70;;;6.80;99.70;;;;;;4966472;28;20230;-75
2021/11/05 01:08:06;;;;;;;72.72;24.42;;;6.70;99.70;;;;;;4950374;28;20109;-76
2021/11/05 01:10:32;;;;;;;59.47;22.98;;;6.80;99.70;;;;;;4939357;28;20026;-76
2021/11/05 01:12:58;;;;;;;61.25;22.73;;;6.80;99.70;;;;;;4956992;28;20053;-76
2021/11/05 01:15:23;;;;;;;52.75;22.42;;;6.80;99.60;;;;;;4948595;28;20484;-75
2021/11/05 01:17:49;;;;;;;59.90;23.48;;;6.80;99.60;;;;;;4939232;28;20121;-75
2021/11/05 01:20:17;;;;;;;54.00;22.90;;;6.80;99.60;;;;;;4963401;28;20062;-75
2021/11/05 01:22:43;;;;;;;57.88;22.40;;;6.80;99.60;;;;;;4956302;28;20118;-75
2021/11/05 01:25:10;;;;;;;57.22;22.23;;;6.80;99.60;;;;;;4964440;28;20414;-75
2021/11/05 01:27:36;;;;;;;59.05;22.75;;;6.80;99.70;;;;;;4956609;28;20041;-75
2021/11/05 01:30:02;;;;;;;67.15;22.30;;;6.80;99.60;;;;;;4966229;28;20364;-75
2021/11/05 01:32:28;;;;;;;53.05;21.60;;;6.80;99.60;;;;;;4971460;28;20105;-74
2021/11/05 01:34:54;;;;;;;67.22;21.92;;;6.80;99.60;;;;;;4947905;28;20122;-75
2021/11/05 01:37:19;;;;;;;58.90;21.77;;;6.70;99.60;;;;;;4942313;28;20051;-75
2021/11/05 01:39:45;;;;;;;51.45;21.55;;;6.80;99.60;;;;;;4963576;28;20035;-75
2021/11/05 01:42:10;;;;;;;48.00;21.55;;;6.80;99.60;;;;;;4949139;28;20075;-75
2021/11/05 01:44:36;;;;;;;54.42;22.05;;;6.80;99.60;;;;;;4939887;28;20039;-75
2021/11/05 01:47:02;;;;;;;50.28;21.33;;;6.80;99.50;;;;;;4940318;28;20025;-75
2021/11/05 01:49:28;;;;;;;53.08;21.10;;;6.80;99.50;;;;;;4970159;28;20026;-75
2021/11/05 01:51:55;;;;;;;47.63;21.13;;;6.90;99.50;;;;;;4962860;28;20127;-75
2021/11/05 01:54:21;;;;;;;43.35;20.00;;;6.80;99.40;;;;;;4963894;28;20393;-75
2021/11/05 01:56:47;;;;;;;42.50;20.48;;;6.80;99.40;;;;;;4963555;28;20034;-75
2021/11/05 01:59:25;;;;;;;43.45;20.33;;;6.90;99.40;;;;;;4963321;28;20035;-75
2021/11/05 02:01:51;;;;;;;45.10;20.77;;;6.90;99.40;;;;;;4947744;28;20140;-76
2021/11/05 02:04:16;;;;;;;42.13;18.60;;;6.90;99.30;;;;;;4958196;28;20106;-75
2021/11/05 02:06:44;;;;;;;44.38;18.83;;;6.90;99.30;;;;;;4964611;28;20042;-75
2021/11/05 02:09:12;;;;;;;46.80;19.80;;;6.90;99.30;;;;;;4964764;28;20545;-75
2021/11/05 02:11:38;;;;;;;42.28;20.50;;;6.90;99.30;;;;;;4960232;28;20022;-75
2021/11/05 02:14:05;;;;;;;44.53;19.25;;;6.90;99.30;;;;;;4958746;28;20023;-75
2021/11/05 02:16:31;;;;;;;43.72;20.23;;;6.80;99.30;;;;;;4960443;28;20461;-75
2021/11/05 02:18:57;;;;;;;44.08;18.77;;;6.80;99.20;;;;;;4951763;28;20209;-75
2021/11/05 02:21:34;;;;;;;38.10;19.23;;;6.80;99.30;;;;;;4946751;28;20027;-75
2021/11/05 02:24:00;;;;;;;43.25;18.77;;;6.80;99.20;;;;;;4958167;28;20463;-75
2021/11/05 02:26:26;;;;;;;41.53;19.02;;;6.90;99.30;;;;;;4938232;28;20027;-75
2021/11/05 02:28:51;;;;;;;35.95;19.30;;;6.80;99.20;;;;;;4940243;28;20891;-75
2021/11/05 02:31:17;;;;;;;36.90;16.70;;;6.90;99.20;;;;;;4957980;28;20039;-75
2021/11/05 02:33:42;;;;;;;39.55;19.92;;;6.90;99.20;;;;;;4949400;28;20058;-75
2021/11/05 02:38:36;;;;;;;33.58;18.13;;;6.80;99.20;;;;;;4994950;28;20081;-78
2021/11/05 02:41:01;;;;;;;39.40;18.95;;;6.90;99.10;;;;;;4984040;28;20018;-79
2021/11/05 02:43:27;;;;;;;34.83;17.55;;;6.90;99.10;;;;;;5012065;28;20026;-79
2021/11/05 02:45:53;;;;;;;35.40;17.52;;;6.90;99.10;;;;;;5009726;28;20229;-79
2021/11/05 02:48:19;;;;;;;34.55;17.45;;;6.90;99.10;;;;;;4977117;28;20458;-79
2021/11/05 02:50:44;;;;;;;36.47;17.80;;;6.90;99.10;;;;;;4989507;28;20058;-79
2021/11/05 02:53:10;;;;;;;33.78;17.45;;;6.90;99.00;;;;;;4973569;28;20031;-79
2021/11/05 02:55:36;;;;;;;37.92;17.23;;;6.90;99.10;;;;;;4967257;28;20030;-78
2021/11/05 02:58:02;;;;;;;38.05;17.77;;;6.80;99.00;;;;;;4970137;28;20404;-79
2021/11/05 03:00:28;;;;;;;36.85;18.23;;;6.80;99.00;;;;;;4975142;28;20129;-79
2021/11/05 03:02:53;;;;;;;36.25;18.08;;;6.80;99.00;;;;;;4991282;28;20451;-79
2021/11/05 03:05:19;;;;;;;35.55;16.63;;;6.80;99.00;;;;;;4990701;28;20030;-79
2021/11/05 03:07:44;;;;;;;36.92;17.17;;;6.80;99.00;;;;;;4995548;28;20034;-79
2021/11/05 03:10:13;;;;;;;35.92;17.02;;;6.80;99.00;;;;;;4991004;28;20039;-79
2021/11/05 03:12:39;;;;;;;34.60;17.38;;;6.70;99.00;;;;;;4993839;28;20551;-78
2021/11/05 03:15:05;;;;;;;32.78;16.58;;;6.70;99.10;;;;;;4991477;28;20037;-79
2021/11/05 03:17:31;;;;;;;40.72;17.23;;;6.70;99.10;;;;;;4975291;28;20034;-79
2021/11/05 03:19:57;;;;;;;36.45;17.35;;;6.70;99.10;;;;;;4994164;28;20270;-78
2021/11/05 03:22:22;;;;;;;38.20;17.55;;;6.60;99.20;;;;;;4993015;28;20028;-78
2021/11/05 03:24:48;;;;;;;38.70;17.95;;;6.70;99.20;;;;;;4992608;28;20455;-79
2021/11/05 03:27:14;;;;;;;40.83;17.60;;;6.70;99.20;;;;;;4975576;28;20014;-78
2021/11/05 03:29:39;;;;;;;32.70;17.23;;;6.60;99.20;;;;;;4979542;28;20456;-79
2021/11/05 03:32:05;;;;;;;39.75;17.38;;;6.70;99.20;;;;;;4992495;28;20026;-79
2021/11/05 03:34:31;;;;;;;37.63;16.67;;;6.60;99.30;;;;;;4989622;28;20038;-79
2021/11/05 03:36:56;;;;;;;46.67;18.55;;;6.60;99.30;;;;;;4989220;28;20073;-79
2021/11/05 03:39:22;;;;;;;44.03;17.33;;;6.60;99.30;;;;;;4987157;28;20030;-79
2021/11/05 03:41:47;;;;;;;37.92;17.45;;;6.60;99.40;;;;;;4990808;28;20392;-78
2021/11/05 03:44:13;;;;;;;45.05;17.95;;;6.70;99.40;;;;;;4993071;28;20022;-78
2021/11/05 03:46:39;;;;;;;40.75;17.55;;;6.60;99.40;;;;;;4989982;28;20167;-79
2021/11/05 03:49:06;;;;;;;35.60;17.40;;;6.60;99.40;;;;;;4989534;28;20030;-78
2021/11/05 03:51:31;;;;;;;40.45;18.13;;;6.60;99.50;;;;;;4985307;28;20018;-78
2021/11/05 03:53:57;;;;;;;44.25;18.77;;;6.70;99.50;;;;;;4981497;28;20031;-78
2021/11/05 03:56:23;;;;;;;43.80;18.60;;;6.60;99.50;;;;;;4987768;28;20035;-78
2021/11/05 03:58:49;;;;;;;46.67;18.98;;;6.60;99.50;;;;;;4978898;28;20065;-78
2021/11/05 04:01:14;;;;;;;47.42;19.75;;;6.60;99.50;;;;;;4990265;28;20106;-78
2021/11/05 04:03:40;;;;;;;48.25;19.08;;;6.60;99.50;;;;;;4982329;28;20038;-78
2021/11/05 04:06:05;;;;;;;44.33;19.25;;;6.60;99.50;;;;;;4982081;28;20030;-78
2021/11/05 04:08:31;;;;;;;42.28;18.25;;;6.60;99.60;;;;;;4990415;28;20412;-79
2021/11/05 04:10:57;;;;;;;40.80;19.25;;;6.60;99.60;;;;;;4981625;28;20034;-79
2021/11/05 04:13:23;;;;;;;42.15;17.83;;;6.60;99.60;;;;;;4981757;28;20019;-79
2021/11/05 04:15:49;;;;;;;43.03;18.00;;;6.70;99.60;;;;;;4984833;28;20037;-79
2021/11/05 04:18:14;;;;;;;40.90;17.88;;;6.70;99.60;;;;;;4982962;28;20041;-78
2021/11/05 04:20:40;;;;;;;39.10;17.45;;;6.60;99.50;;;;;;4983626;28;20045;-78
2021/11/05 04:23:06;;;;;;;41.40;18.65;;;6.60;99.50;;;;;;4981520;28;20094;-78
2021/11/05 04:25:34;;;;;;;46.95;17.27;;;6.70;99.50;;;;;;4966094;28;20026;-78
2021/11/05 04:27:59;;;;;;;32.42;17.58;;;6.70;99.50;;;;;;4979328;28;20034;-78
2021/11/05 04:30:25;;;;;;;33.38;16.00;;;6.70;99.50;;;;;;4979571;28;20476;-78
2021/11/05 04:32:51;;;;;;;36.78;18.02;;;6.60;99.50;;;;;;4986461;28;20027;-78
2021/11/05 04:35:16;;;;;;;33.47;17.40;;;6.60;99.40;;;;;;4981787;28;20475;-78
2021/11/05 04:37:42;;;;;;;36.67;15.77;;;6.60;99.40;;;;;;4972666;28;20081;-78
2021/11/05 04:40:08;;;;;;;37.10;17.70;;;6.60;99.30;;;;;;4982088;28;20369;-78
2021/11/05 04:42:34;;;;;;;36.38;16.30;;;6.50;99.40;;;;;;4969193;28;20476;-78
2021/11/05 04:44:59;;;;;;;34.70;16.13;;;6.50;99.30;;;;;;4983267;28;20043;-78
2021/11/05 04:47:25;;;;;;;35.28;16.85;;;6.50;99.30;;;;;;4990733;28;20491;-78
2021/11/05 04:49:50;;;;;;;32.40;17.08;;;6.40;99.30;;;;;;4994289;28;20031;-78
2021/11/05 04:52:16;;;;;;;40.65;16.85;;;6.40;99.40;;;;;;4982383;28;20034;-78
2021/11/05 04:54:41;;;;;;;36.30;17.33;;;6.50;99.40;;;;;;4982957;28;20030;-79
2021/11/05 04:57:09;;;;;;;39.28;16.08;;;6.40;99.30;;;;;;4988622;28;20713;-79
2021/11/05 04:59:35;;;;;;;36.83;15.77;;;6.40;99.30;;;;;;4991201;28;20392;-78
2021/11/05 05:02:02;;;;;;;32.40;16.30;;;6.50;99.30;;;;;;4966179;28;20057;-78
2021/11/05 05:04:28;;;;;;;33.78;17.15;;;6.40;99.30;;;;;;4992897;28;20411;-79
2021/11/05 05:06:53;;;;;;;35.42;16.60;;;6.50;99.30;;;;;;4981365;28;20019;-78
2021/11/05 05:09:19;;;;;;;36.40;17.17;;;6.50;99.30;;;;;;4992657;28;20045;-78
2021/11/05 05:11:46;;;;;;;44.75;16.80;;;6.50;99.30;;;;;;4985672;28;20046;-78
2021/11/05 05:14:14;;;;;;;35.47;16.20;;;6.40;99.30;;;;;;4964519;28;20077;-78
2021/11/05 05:16:39;;;;;;;39.22;16.90;;;6.40;99.30;;;;;;4990756;28;20041;-78
2021/11/05 05:19:04;;;;;;;32.03;16.10;;;6.40;99.40;;;;;;4984564;28;20107;-79
2021/11/05 05:21:30;;;;;;;35.45;15.38;;;6.50;99.40;;;;;;4990479;28;20034;-79
2021/11/05 05:23:55;;;;;;;34.45;17.23;;;6.50;99.40;;;;;;4992697;28;20041;-80
2021/11/05 05:26:21;;;;;;;38.88;15.57;;;6.60;99.30;;;;;;4972796;28;20450;-80
2021/11/05 05:28:46;;;;;;;30.42;15.05;;;6.60;99.40;;;;;;4986140;28;20089;-80
2021/11/05 05:31:12;;;;;;;33.95;16.08;;;6.70;99.30;;;;;;4971823;28;20392;-80
2021/11/05 05:33:39;;;;;;;32.50;15.57;;;6.70;99.30;;;;;;4992046;28;20035;-80
2021/11/05 05:36:05;;;;;;;29.83;14.77;;;6.70;99.20;;;;;;4969013;28;20052;-80
2021/11/05 05:38:31;;;;;;;27.63;14.93;;;6.80;99.20;;;;;;4978879;28;20030;-80
2021/11/05 05:40:57;;;;;;;28.55;14.95;;;6.70;99.20;;;;;;4994772;28;20423;-80
2021/11/05 05:43:22;;;;;;;28.15;14.65;;;6.80;99.20;;;;;;4992672;28;20084;-80
2021/11/05 05:45:48;;;;;;;25.42;14.35;;;6.80;99.20;;;;;;4992139;28;20038;-80
2021/11/05 05:48:14;;;;;;;25.60;14.57;;;6.80;99.10;;;;;;4985968;28;20037;-80
2021/11/05 05:50:40;;;;;;;25.73;13.70;;;6.80;99.10;;;;;;4974127;28;20023;-80
2021/11/05 05:53:05;;;;;;;29.30;13.43;;;6.80;99.10;;;;;;4986430;28;20183;-80
2021/11/05 05:55:31;;;;;;;25.55;13.07;;;6.80;99.10;;;;;;4987937;28;20521;-79
2021/11/05 05:57:56;;;;;;;23.75;13.27;;;6.90;99.10;;;;;;4984145;28;20448;-80
2021/11/05 06:00:22;;;;;;;24.42;13.63;;;6.90;99.10;;;;;;4980310;28;20053;-79
2021/11/05 06:02:47;;;;;;;29.75;13.80;;;6.90;99.10;;;;;;4982294;28;20034;-79
2021/11/05 06:05:14;;;;;;;25.40;13.30;;;6.90;99.10;;;;;;4981669;28;20030;-80
2021/11/05 06:07:40;;;;;;;28.33;12.65;;;6.90;99.10;;;;;;4973462;28;20081;-79
2021/11/05 06:10:07;;;;;;;27.27;13.45;;;6.80;99.20;;;;;;4991272;28;20026;-80
2021/11/05 06:12:35;;;;;;;26.75;12.75;;;6.80;99.20;;;;;;4977251;28;20537;-80
2021/11/05 06:15:01;;;;;;;29.05;13.60;;;6.80;99.20;;;;;;4966418;28;20030;-80
2021/11/05 06:17:26;;;;;;;28.85;13.00;;;6.70;99.20;;;;;;4977590;28;20407;-80
2021/11/05 06:19:52;;;;;;;36.38;13.68;;;6.60;99.30;;;;;;4970640;28;20484;-80
2021/11/05 06:22:19;;;;;;;26.42;13.27;;;6.60;99.40;;;;;;4993356;28;20027;-80
2021/11/05 06:24:45;;;;;;;29.50;13.85;;;6.60;99.40;;;;;;4971025;28;20034;-79
2021/11/05 06:27:12;;;;;;;33.28;13.00;;;6.50;99.50;;;;;;4989110;28;20035;-80
2021/11/05 06:29:37;;;;;;;31.50;13.73;;;6.50;99.50;;;;;;4993463;28;20032;-80
2021/11/05 06:32:03;;;;;;;31.33;14.50;;;6.50;99.60;;;;;;4972627;28;20050;-79
2021/11/05 06:34:29;;;;;;;27.67;13.95;;;6.40;99.60;;;;;;4974711;28;20483;-79
2021/11/05 06:36:54;;;;;;;35.47;13.77;;;6.40;99.60;;;;;;4973070;28;20038;-80
2021/11/05 06:39:20;;;;;;;39.97;13.48;;;6.40;99.60;;;;;;4992393;28;20302;-79
2021/11/05 06:41:45;;;;;;;36.42;14.57;;;6.30;99.60;;;;;;4998737;28;20250;-78
2021/11/05 06:44:11;;;;;;;32.03;14.48;;;6.20;99.60;;;;;;4976036;28;20038;-79
2021/11/05 06:46:37;;;;;;;38.03;14.77;;;6.20;99.70;;;;;;4968435;28;20095;-80
2021/11/05 06:49:02;;;;;;;38.72;15.13;;;6.10;99.70;;;;;;4996327;28;20395;-80
2021/11/05 06:51:28;;;;;;;39.92;14.80;;;6.10;99.80;;;;;;4998784;28;20027;-80
2021/11/05 06:53:53;;;;;;;37.60;14.60;;;6.20;99.80;;;;;;4970526;28;20023;-78
2021/11/05 06:56:19;;;;;;;39.03;14.48;;;6.20;99.80;;;;;;4969238;28;20023;-78
2021/11/05 06:58:46;;;;;;;34.88;14.93;;;6.10;99.80;;;;;;4978000;28;20039;-80
2021/11/05 07:01:12;;;;;;;34.47;13.25;;;6.20;99.90;;;;;;4989690;28;20026;-81
2021/11/05 07:03:38;;;;;;;37.70;14.85;;;6.20;99.90;;;;;;4995054;28;20092;-79
2021/11/05 07:06:04;;;;;;;44.25;15.40;;;6.30;99.90;;;;;;4975132;28;20022;-79
2021/11/05 07:08:31;;;;;;;43.83;15.63;;;6.30;99.90;;;;;;4977418;28;20045;-81
2021/11/05 07:10:57;;;;;;;44.28;15.50;;;6.40;99.90;;;;;;4998126;28;20092;-82
2021/11/05 07:13:23;;;;;;;39.05;14.50;;;6.40;99.90;;;;;;4976934;28;20032;-81
2021/11/05 07:15:49;;;;;;;45.25;15.98;;;6.40;99.90;;;;;;4998620;28;20082;-81
2021/11/05 07:18:15;;;;;;;39.60;14.20;;;6.50;99.90;;;;;;4995871;28;20033;-79
2021/11/05 07:20:43;;;;;;;41.10;15.30;;;6.60;99.90;;;;;;4976124;28;20050;-81
2021/11/05 07:23:09;;;;;;;48.92;15.88;;;6.70;99.90;;;;;;4991817;28;20068;-81
2021/11/05 07:25:35;;;;;;;43.78;15.20;;;6.80;99.90;;;;;;4982556;28;20606;-79
2021/11/05 07:28:00;;;;;;;39.70;13.73;;;6.80;99.90;;;;;;4996479;28;20030;-78
2021/11/05 07:30:27;;;;;;;34.22;13.35;;;7.00;99.90;;;;;;4994016;28;20058;-79
2021/11/05 07:32:52;;;;;;;37.70;13.65;;;7.10;99.90;;;;;;4992816;28;20026;-79
2021/11/05 07:35:20;;;;;;;35.35;13.10;;;7.10;99.90;;;;;;4992218;28;20550;-78
2021/11/05 07:37:47;;;;;;;34.92;13.40;;;7.20;99.90;;;;;;4966620;28;20034;-79
2021/11/05 07:40:14;;;;;;;29.02;11.63;;;7.20;99.90;;;;;;4984285;28;20046;-79
2021/11/05 07:42:41;;;;;;;35.53;13.02;;;7.30;99.90;;;;;;4983288;28;20055;-79
2021/11/05 07:45:10;;;;;;;30.60;11.73;;;7.40;99.90;;;;;;4979974;28;20438;-79
2021/11/05 07:47:36;;;;;;;31.95;11.32;;;7.40;99.90;;;;;;4988376;28;20042;-77
2021/11/05 07:50:06;;;;;;;28.60;11.60;;;7.50;99.90;;;;;;4971666;28;20030;-79
2021/11/05 07:52:32;;;;;;;23.13;9.35;;;7.50;99.90;;;;;;4978430;28;20030;-79
2021/11/05 07:54:57;;;;;;;21.38;9.77;;;7.50;99.90;;;;;;4985149;28;20030;-79
2021/11/05 07:57:23;;;;;;;23.02;9.43;;;7.50;99.90;;;;;;4984585;28;20035;-79
2021/11/05 07:59:49;;;;;;;19.70;9.13;;;7.60;99.90;;;;;;4963895;28;20039;-80
2021/11/05 08:02:15;;;;;;;18.35;8.60;;;7.60;99.80;;;;;;4991024;28;20031;-80
2021/11/05 08:04:40;;;;;;;19.10;8.90;;;7.60;99.80;;;;;;4988362;28;20266;-79
2021/11/05 08:07:06;;;;;;;22.08;9.20;;;7.70;99.80;;;;;;4986414;28;20036;-78
2021/11/05 08:09:31;;;;;;;19.20;8.27;;;7.80;99.80;;;;;;4977286;28;20093;-80
2021/11/05 08:11:57;;;;;;;18.20;8.38;;;7.80;99.70;;;;;;4985108;28;20053;-79
2021/11/05 08:14:23;;;;;;;14.98;6.78;;;7.80;99.70;;;;;;4985542;28;20460;-79
2021/11/05 08:16:49;;;;;;;18.17;8.00;;;7.80;99.60;;;;;;4977773;28;20031;-79
2021/11/05 08:19:15;;;;;;;15.85;7.80;;;7.90;99.60;;;;;;4982511;28;20061;-79
2021/11/05 08:21:40;;;;;;;18.30;8.00;;;7.90;99.60;;;;;;4996235;28;20402;-80
2021/11/05 08:24:06;;;;;;;17.05;7.65;;;8.00;99.60;;;;;;4985066;28;20088;-80
2021/11/05 08:26:34;;;;;;;17.85;7.07;;;8.00;99.50;;;;;;4992701;28;20023;-80
2021/11/05 08:29:01;;;;;;;15.40;7.18;;;8.00;99.50;;;;;;4971795;28;20038;-80
2021/11/05 08:31:26;;;;;;;12.50;6.78;;;8.10;99.40;;;;;;4992094;28;20022;-80
2021/11/05 08:33:53;;;;;;;12.57;6.57;;;8.00;99.20;;;;;;4987027;28;20037;-79
2021/11/05 08:36:21;;;;;;;17.23;6.95;;;8.00;99.30;;;;;;4985818;28;20023;-79
2021/11/05 08:38:47;;;;;;;14.80;6.55;;;8.00;99.30;;;;;;5005211;23;20070;-79
2021/11/05 08:41:17;;;;;;;13.50;7.00;;;8.10;99.30;;;;;;4992493;28;20027;-79
2021/11/05 08:43:46;;;;;;;12.25;6.60;;;8.10;99.30;;;;;;4979040;28;20336;-79
2021/11/05 08:46:17;;;;;;;12.32;6.28;;;8.10;99.20;;;;;;4983595;28;20074;-79
2021/11/05 08:48:48;;;;;;;12.30;6.27;;;8.20;99.20;;;;;;4968905;28;20194;-79
2021/11/05 08:51:15;;;;;;;10.65;5.45;;;8.40;99.20;;;;;;4950165;28;20028;-79
2021/11/05 08:53:41;;;;;;;10.27;5.45;;;8.50;99.00;;;;;;4968892;28;20030;-79
2021/11/05 08:56:07;;;;;;;9.20;5.38;;;8.50;98.80;;;;;;4956328;28;20106;-80
2021/11/05 08:58:34;;;;;;;14.07;5.55;;;8.60;98.80;;;;;;4960487;28;20354;-80
2021/11/05 09:00:59;;;;;;;14.27;5.40;;;8.60;98.60;;;;;;4964074;28;20031;-77
2021/11/05 09:03:25;;;;;;;8.85;4.80;;;8.70;98.60;;;;;;4961134;28;20034;-77
2021/11/05 09:05:51;;;;;;;13.20;4.90;;;8.70;98.30;;;;;;4959916;28;20306;-77
2021/11/05 09:08:16;;;;;;;8.70;4.22;;;8.60;98.00;;;;;;4965164;28;20035;-77
2021/11/05 09:10:42;;;;;;;9.40;4.90;;;8.60;98.10;;;;;;4954129;28;20035;-77
2021/11/05 09:13:08;;;;;;;9.38;4.40;;;8.60;98.20;;;;;;4964961;28;20507;-77
2021/11/05 09:15:34;;;;;;;9.82;4.55;;;8.60;98.20;;;;;;4967659;28;20628;-77
2021/11/05 09:18:02;;;;;;;8.43;4.22;;;8.70;98.10;;;;;;4958883;28;20168;-77
2021/11/05 09:20:30;;;;;;;9.25;4.45;;;8.80;98.20;;;;;;4964635;28;20026;-77
2021/11/05 09:22:56;;;;;;;9.80;4.03;;;8.70;98.20;;;;;;4948915;28;20104;-77
2021/11/05 09:25:22;;;;;;;6.72;3.63;;;8.80;98.20;;;;;;4972973;28;20054;-80
2021/11/05 09:27:48;;;;;;;11.63;4.35;;;8.80;98.20;;;;;;4969124;28;20094;-80
2021/11/05 09:30:15;;;;;;;9.68;4.22;;;9.00;98.20;;;;;;4973440;28;20026;-80
2021/11/05 09:32:40;;;;;;;7.90;3.70;;;9.00;98.20;;;;;;4976648;28;20476;-80
2021/11/05 09:35:07;;;;;;;10.32;4.07;;;9.00;97.90;;;;;;4976304;28;20051;-80
2021/11/05 09:37:34;;;;;;;12.10;3.30;;;9.10;97.80;;;;;;4972645;28;20038;-80
2021/11/05 09:39:59;;;;;;;7.32;3.75;;;9.10;97.70;;;;;;4975709;28;20058;-80
2021/11/05 09:42:25;;;;;;;9.18;3.28;;;9.10;97.60;;;;;;4967510;28;20038;-80
2021/11/05 09:44:51;;;;;;;7.15;3.90;;;9.10;97.60;;;;;;4975084;28;20114;-80
2021/11/05 09:47:16;;;;;;;11.15;3.42;;;9.30;97.40;;;;;;4956246;28;20496;-80
2021/11/05 09:49:42;;;;;;;6.95;3.13;;;9.60;97.30;;;;;;4967198;28;20048;-80
2021/11/05 09:52:08;;;;;;;8.32;2.88;;;9.70;96.60;;;;;;4972670;28;20065;-79
2021/11/05 09:54:38;;;;;;;6.55;2.78;;;9.90;96.10;;;;;;4958526;28;20029;-80
2021/11/05 09:57:04;;;;;;;5.43;2.35;;;10.10;95.40;;;;;;4978357;28;20345;-81
2021/11/05 09:59:30;;;;;;;7.68;2.00;;;10.10;94.20;;;;;;4971200;28;20156;-80
2021/11/05 10:01:56;;;;;;;5.78;1.95;;;10.30;93.30;;;;;;4967653;28;20596;-78
2021/11/05 10:04:21;;;;;;;9.30;2.17;;;10.50;92.80;;;;;;4966714;28;20038;-78
2021/11/05 10:07:05;;;;;;;5.15;2.00;;;10.50;92.80;;;;;;4960219;28;20046;-78
2021/11/05 10:09:34;;;;;;;6.53;1.95;;;10.40;93.10;;;;;;4958644;28;20117;-78
2021/11/05 10:12:12;;;;;;;3.25;1.50;;;10.30;93.40;;;;;;4949398;28;20022;-78
2021/11/05 10:14:38;;;;;;;4.15;1.50;;;10.30;93.00;;;;;;4957777;28;20062;-78
2021/11/05 10:17:10;;;;;;;7.93;1.70;;;10.50;92.20;;;;;;4961912;28;20023;-78
2021/11/05 10:19:50;;;;;;;3.97;1.00;;;10.70;92.40;;;;;;4957506;28;20062;-76
2021/11/05 10:22:47;;;;;;;6.35;1.20;;;10.70;91.10;;;;;;4948131;28;20054;-78
2021/11/05 10:25:33;;;;;;;5.75;1.48;;;10.70;90.70;;;;;;4962791;28;20388;-78
2021/11/05 10:28:18;;;;;;;3.28;1.08;;;10.70;90.90;;;;;;4961859;28;20034;-78
2021/11/05 10:30:44;;;;;;;3.47;1.20;;;10.60;90.90;;;;;;4969158;28;20377;-78
2021/11/05 10:33:11;;;;;;;4.90;1.30;;;10.50;91.30;;;;;;4948790;28;20049;-78
2021/11/05 10:35:42;;;;;;;4.47;0.90;;;10.40;91.60;;;;;;4952144;28;20034;-78
2021/11/05 10:38:09;;;;;;;;;;;10.30;91.50;;;;;;4962574;28;20026;-78
2021/11/05 10:40:38;;;;;;;3.92;1.30;;;10.30;91.80;;;;;;4968601;28;19957;-78
2021/11/05 10:43:05;;;;;;;3.13;0.73;;;10.30;92.30;;;;;;4961261;28;20300;-78
2021/11/05 10:45:31;;;;;;;4.70;0.80;;;10.40;91.80;;;;;;4950348;28;20042;-77
2021/11/05 10:47:59;;;;;;;6.35;0.85;;;10.40;90.90;;;;;;4960391;28;20035;-78
2021/11/05 10:50:50;;;;;;;6.93;0.60;;;10.40;90.20;;;;;;4955037;28;20023;-78
2021/11/05 10:53:17;;;;;;;4.95;0.55;;;10.50;90.70;;;;;;4953062;28;20123;-78
2021/11/05 10:55:48;;;;;;;5.60;0.80;;;10.60;90.50;;;;;;4955943;28;20082;-79
2021/11/05 10:58:16;;;;;;;3.00;0.80;;;10.60;89.60;;;;;;4967803;28;20027;-79
2021/11/05 11:00:42;;;;;;;4.07;1.52;;;10.70;89.30;;;;;;4963553;28;20039;-79
2021/11/05 11:03:13;;;;;;;1.75;0.65;;;10.70;90.10;;;;;;4964603;28;20030;-80
2021/11/05 11:05:43;;;;;;;6.28;0.90;;;10.80;88.70;;;;;;4965913;28;20052;-80
2021/11/05 11:08:24;;;;;;;4.85;0.70;;;10.80;88.40;;;;;;4959714;28;20031;-78
2021/11/05 11:10:52;;;;;;;4.68;0.52;;;10.80;88.70;;;;;;4965482;28;20046;-80
2021/11/05 11:13:28;;;;;;;6.53;0.98;;;10.80;88.70;;;;;;4965073;28;20037;-80
2021/11/05 11:15:54;;;;;;;1.45;0.60;;;10.80;88.10;;;;;;4962583;28;20031;-80
2021/11/05 11:18:19;;;;;;;1.70;0.63;;;10.80;87.40;;;;;;4963308;28;20041;-79
2021/11/05 11:20:45;;;;;;;4.03;0.60;;;10.90;86.90;;;;;;4963205;28;20094;-79
2021/11/05 11:23:12;;;;;;;3.30;0.65;;;11.10;88.30;;;;;;4953625;28;20034;-79
2021/11/05 11:25:39;;;;;;;2.58;0.70;;;11.10;85.80;;;;;;4950924;28;20404;-79
2021/11/05 11:28:04;;;;;;;2.60;0.50;;;11.30;86.20;;;;;;4972657;28;20571;-79
2021/11/05 11:30:30;;;;;;;1.58;0.40;;;11.40;85.80;;;;;;4972506;28;20038;-79
2021/11/05 11:32:58;;;;;;;5.53;0.60;;;11.30;84.80;;;;;;4968335;28;20027;-79
2021/11/05 11:35:24;;;;;;;3.45;0.60;;;11.50;85.90;;;;;;4972843;28;20015;-80
2021/11/05 11:37:50;;;;;;;2.20;0.45;;;11.70;85.40;;;;;;4933201;28;979092;-79
2021/11/05 11:40:16;;;;;;;4.72;0.65;;;11.80;85.30;;;;;;4970670;28;20026;-80
2021/11/05 11:42:42;;;;;;;1.55;0.30;;;11.80;84.60;;;;;;4974081;28;20050;-80
2021/11/05 11:45:12;;;;;;;3.60;0.60;;;11.60;84.40;;;;;;4951628;28;20400;-79
2021/11/05 11:47:46;;;;;;;1.13;0.50;;;11.50;84.90;;;;;;4966944;28;20042;-79
2021/11/05 11:50:30;;;;;;;3.97;0.75;;;11.60;84.00;;;;;;4966868;28;20551;-78
2021/11/05 11:53:06;;;;;;;5.47;0.90;;;12.10;84.30;;;;;;4947531;28;20038;-80
2021/11/05 11:55:34;;;;;;;5.75;0.70;;;12.60;81.80;;;;;;4958206;28;20063;-80
2021/11/05 11:58:13;;;;;;;5.30;0.47;;;13.00;80.40;;;;;;4969879;28;20034;-80
2021/11/05 12:00:41;;;;;;;3.42;0.43;;;12.90;78.40;;;;;;4955846;28;21069;-80
2021/11/05 12:03:10;;;;;;;3.75;0.70;;;12.80;79.80;;;;;;4950466;28;20035;-80
2021/11/05 12:05:39;;;;;;;1.10;0.40;;;12.40;80.90;;;;;;4962089;28;20518;-80
2021/11/05 12:08:19;;;;;;;1.65;0.52;;;12.10;80.30;;;;;;4960926;28;20037;-80
2021/11/05 12:11:14;;;;;;;3.13;0.32;;;12.00;82.00;;;;;;4970338;28;20023;-79
2021/11/05 12:13:42;;;;;;;3.50;0.70;;;11.80;82.90;;;;;;4966284;28;20042;-79
2021/11/05 12:16:21;;;;;;;2.72;0.63;;;11.50;83.30;;;;;;4968577;28;20023;-80
2021/11/05 12:19:07;;;;;;;4.15;0.90;;;11.40;84.10;;;;;;4961209;28;20030;-79
2021/11/05 12:21:44;;;;;;;3.22;0.55;;;11.20;85.30;;;;;;4977138;28;20039;-80
2021/11/05 12:24:13;;;;;;;3.80;0.88;;;11.00;85.60;;;;;;4943696;28;20026;-79
2021/11/05 12:26:58;;;;;;;7.53;0.82;;;10.90;87.10;;;;;;4971694;28;20555;-79
2021/11/05 12:29:33;;;;;;;4.80;0.60;;;10.60;88.30;;;;;;4965860;28;20399;-79
2021/11/05 12:32:17;;;;;;;10.90;1.00;;;10.30;89.90;;;;;;4956016;28;20027;-79
2021/11/05 12:34:47;;;;;;;1.83;0.57;;;10.10;90.70;;;;;;4960098;28;20070;-79
2021/11/05 12:37:36;;;;;;;4.10;0.93;;;10.10;91.30;;;;;;4962625;28;20077;-79
2021/11/05 12:40:20;;;;;;;1.85;0.70;;;10.10;91.80;;;;;;4938925;28;20041;-78
2021/11/05 12:42:47;;;;;;;4.88;0.77;;;10.20;92.30;;;;;;4944471;28;20035;-80